Terminal Aerodrome Forecast
Issued by NWS

Home | Current Version | Previous Version | Graphics & Text | Print | Product List | Glossary Off
Versions: 1 2 3 4 5 6 7 8 9 10 11 12 13 14 15 16 17 18 19

000
FTUS43 KDDC 200520
TAFHYS
TAF
KHYS 200520Z 2006/2106 33014KT P6SM VCSH OVC010
     FM201300 32015G22KT P6SM OVC015
     FM201800 31015G23KT P6SM BKN025
     FM202200 31015G23KT P6SM SCT040
     FM210300 32004KT P6SM SKC=

USA.gov is the U.S. government's official web portal to all federal, state and local government web resources and services.